createdAt,value
2017-12-06T00:01:40.578Z,3.11
2017-12-06T00:04:08.092Z,3.19
2017-12-06T00:06:35.594Z,3.19
2017-12-06T00:09:03.091Z,3.26
2017-12-06T00:11:30.609Z,3.30
2017-12-06T00:14:03.710Z,3.16
2017-12-06T00:16:31.222Z,3.06
2017-12-06T00:18:58.729Z,3.12
2017-12-06T00:21:26.220Z,3.14
2017-12-06T00:23:53.712Z,3.12
2017-12-06T00:26:21.330Z,3.14
2017-12-06T00:28:48.821Z,3.07
2017-12-06T00:31:16.306Z,3.13
2017-12-06T00:33:43.806Z,3.13
2017-12-06T00:36:11.288Z,3.10
2017-12-06T00:38:38.777Z,3.17
2017-12-06T00:41:06.269Z,3.12
2017-12-06T00:43:33.752Z,3.10
2017-12-06T00:46:01.306Z,3.14
2017-12-06T00:48:28.788Z,3.15
2017-12-06T00:50:56.291Z,3.20
2017-12-06T00:53:23.831Z,3.16
2017-12-06T00:55:51.328Z,3.16
2017-12-06T00:58:18.838Z,3.16
2017-12-06T01:00:46.337Z,3.12
2017-12-06T01:03:13.833Z,3.07
2017-12-06T01:05:41.351Z,3.18
2017-12-06T01:08:08.870Z,3.44
2017-12-06T01:10:36.393Z,3.31
2017-12-06T01:13:03.881Z,3.43
2017-12-06T01:15:31.373Z,3.58
2017-12-06T01:17:58.887Z,3.60
2017-12-06T01:20:26.390Z,3.28
2017-12-06T01:22:54.084Z,3.16
2017-12-06T01:25:21.593Z,3.14
2017-12-06T01:27:49.092Z,3.30
2017-12-06T01:30:16.626Z,3.47
2017-12-06T01:32:44.125Z,3.60
2017-12-06T01:35:11.617Z,3.52
2017-12-06T01:37:39.167Z,3.43
2017-12-06T01:40:06.672Z,3.22
2017-12-06T01:42:34.179Z,3.26
2017-12-06T01:45:01.678Z,3.32
2017-12-06T01:47:29.192Z,3.53
2017-12-06T01:49:56.693Z,3.52
2017-12-06T01:52:24.191Z,3.46
2017-12-06T01:54:51.694Z,3.35
2017-12-06T01:57:19.224Z,3.31
2017-12-06T01:59:46.715Z,3.46
2017-12-06T02:02:14.224Z,3.42
2017-12-06T02:04:41.738Z,3.42
2017-12-06T02:07:09.238Z,3.34
2017-12-06T02:09:36.737Z,3.24
2017-12-06T02:12:04.251Z,3.47
2017-12-06T02:14:31.745Z,3.57
2017-12-06T02:16:59.247Z,3.56
2017-12-06T02:19:26.736Z,3.94
2017-12-06T02:21:54.230Z,3.94
2017-12-06T02:24:21.724Z,3.90
2017-12-06T02:26:49.242Z,3.82
2017-12-06T02:29:16.742Z,3.61
2017-12-06T02:31:44.243Z,3.71
2017-12-06T02:34:11.742Z,3.73
2017-12-06T02:36:39.259Z,3.18
2017-12-06T02:39:06.756Z,3.08
2017-12-06T02:41:46.120Z,3.11
2017-12-06T02:44:25.507Z,3.27
2017-12-06T02:46:53.006Z,3.45
2017-12-06T02:49:20.508Z,3.47
2017-12-06T02:51:48.023Z,3.76
2017-12-06T02:54:15.543Z,3.76
2017-12-06T02:56:43.053Z,3.96
2017-12-06T02:59:10.580Z,4.03
2017-12-06T03:01:38.112Z,3.99
2017-12-06T03:04:05.611Z,4.06
2017-12-06T03:06:33.113Z,3.75
2017-12-06T03:09:00.597Z,3.56
2017-12-06T03:11:28.096Z,3.24
2017-12-06T03:13:55.586Z,2.98
2017-12-06T03:16:23.563Z,2.92
2017-12-06T03:18:51.056Z,3.28
2017-12-06T03:21:18.570Z,3.60
2017-12-06T03:23:46.077Z,3.68
2017-12-06T03:26:13.606Z,3.27
2017-12-06T03:28:41.095Z,3.39
2017-12-06T03:31:08.614Z,3.17
2017-12-06T03:33:36.136Z,3.37
2017-12-06T03:36:03.633Z,3.36
2017-12-06T03:38:31.167Z,3.62
2017-12-06T03:40:58.665Z,3.28
2017-12-06T03:43:26.165Z,3.32
2017-12-06T03:45:53.661Z,3.54
2017-12-06T03:48:21.150Z,3.50
2017-12-06T03:50:48.642Z,3.05
2017-12-06T03:53:16.158Z,2.94
2017-12-06T03:55:43.649Z,3.20
2017-12-06T03:58:11.166Z,3.21
2017-12-06T04:00:38.659Z,3.46
2017-12-06T04:03:06.140Z,3.74
2017-12-06T04:05:33.620Z,3.65
2017-12-06T04:08:01.112Z,3.64
2017-12-06T04:10:28.614Z,3.64
2017-12-06T04:12:56.100Z,3.56
2017-12-06T04:15:23.591Z,3.78
2017-12-06T04:17:51.173Z,3.64
2017-12-06T04:20:18.672Z,2.99
2017-12-06T04:22:46.168Z,2.71
2017-12-06T04:25:13.653Z,3.03
2017-12-06T04:27:41.141Z,3.07
2017-12-06T04:30:08.656Z,2.97
2017-12-06T04:32:36.159Z,3.47
2017-12-06T04:35:03.654Z,3.77
2017-12-06T04:37:31.149Z,3.77
2017-12-06T04:39:58.648Z,3.88
2017-12-06T04:42:26.137Z,3.51
2017-12-06T04:44:53.617Z,3.04
2017-12-06T04:47:21.122Z,2.93
2017-12-06T04:49:48.625Z,3.00
2017-12-06T04:52:16.139Z,3.48
2017-12-06T04:54:43.642Z,3.34
2017-12-06T04:57:11.163Z,3.68
2017-12-06T04:59:38.665Z,3.69
2017-12-06T05:02:06.159Z,3.20
2017-12-06T05:04:33.646Z,3.17
2017-12-06T05:07:01.124Z,3.19
2017-12-06T05:09:28.623Z,3.49
2017-12-06T05:11:56.108Z,2.94
2017-12-06T05:14:23.609Z,3.11
2017-12-06T05:16:51.135Z,3.27
2017-12-06T05:19:18.640Z,3.45
2017-12-06T05:21:46.146Z,3.51
2017-12-06T05:24:13.643Z,2.93
2017-12-06T05:26:41.135Z,3.07
2017-12-06T05:29:08.617Z,3.49
2017-12-06T05:31:36.109Z,3.53
2017-12-06T05:34:03.611Z,2.89
2017-12-06T05:36:31.116Z,3.25
2017-12-06T05:38:58.622Z,3.52
2017-12-06T05:41:26.110Z,3.04
2017-12-06T05:43:53.616Z,3.21
2017-12-06T05:46:21.112Z,3.07
2017-12-06T05:48:48.602Z,3.16
2017-12-06T05:51:16.087Z,3.32
2017-12-06T05:53:43.587Z,3.30
2017-12-06T05:56:11.086Z,2.82
2017-12-06T05:58:38.574Z,2.81
2017-12-06T06:01:06.100Z,2.81
2017-12-06T06:03:33.596Z,2.69
2017-12-06T06:06:01.103Z,2.57
2017-12-06T06:08:28.621Z,2.87
2017-12-06T06:10:56.100Z,2.66
2017-12-06T06:13:23.601Z,2.67
2017-12-06T06:15:51.158Z,2.84
2017-12-06T06:18:18.661Z,3.01
2017-12-06T06:20:46.185Z,3.22
2017-12-06T06:23:13.705Z,3.39
2017-12-06T06:25:41.228Z,3.65
2017-12-06T06:28:08.729Z,3.73
2017-12-06T06:30:36.254Z,3.49
2017-12-06T06:33:03.748Z,3.12
2017-12-06T06:35:31.252Z,3.18
2017-12-06T06:37:58.742Z,3.04
2017-12-06T06:40:26.231Z,3.41
2017-12-06T06:42:53.712Z,3.52
2017-12-06T06:45:21.224Z,3.62
2017-12-06T06:47:48.720Z,3.20
2017-12-06T06:50:16.233Z,3.35
2017-12-06T06:52:43.745Z,3.44
2017-12-06T06:55:11.285Z,2.91
2017-12-06T06:57:38.932Z,2.94
2017-12-06T07:00:06.433Z,3.27
2017-12-06T07:02:33.936Z,3.42
2017-12-06T07:05:01.449Z,3.60
2017-12-06T07:07:28.948Z,3.68
2017-12-06T07:09:56.435Z,3.46
2017-12-06T07:12:23.925Z,3.46
2017-12-06T07:14:51.446Z,3.41
2017-12-06T07:17:18.932Z,3.54
2017-12-06T07:19:49.260Z,3.92
2017-12-06T07:22:16.759Z,3.87
2017-12-06T07:24:44.259Z,3.96
2017-12-06T07:27:11.748Z,4.15
2017-12-06T07:29:39.260Z,4.12
2017-12-06T07:32:06.812Z,4.34
2017-12-06T07:34:34.300Z,4.21
2017-12-06T07:37:01.811Z,4.13
2017-12-06T07:39:29.302Z,4.03
2017-12-06T07:41:56.821Z,3.58
2017-12-06T07:44:24.313Z,3.62
2017-12-06T07:46:51.826Z,3.91
2017-12-06T07:49:19.336Z,4.00
2017-12-06T07:51:46.893Z,4.11
2017-12-06T07:54:14.405Z,4.16
2017-12-06T07:56:41.917Z,3.97
2017-12-06T07:59:09.439Z,3.89
2017-12-06T08:01:36.944Z,3.86
2017-12-06T08:04:04.439Z,3.89
2017-12-06T08:06:31.948Z,3.93
2017-12-06T08:08:59.468Z,4.03
2017-12-06T08:11:26.957Z,4.22
2017-12-06T08:13:54.460Z,4.05
2017-12-06T08:16:21.988Z,3.94
2017-12-06T08:18:49.477Z,4.05
2017-12-06T08:21:16.968Z,4.26
2017-12-06T08:23:44.471Z,4.18
2017-12-06T08:26:11.969Z,4.19
2017-12-06T08:28:39.464Z,4.37
2017-12-06T08:31:07.003Z,4.25
2017-12-06T08:33:34.493Z,4.52
2017-12-06T08:36:01.977Z,4.63
2017-12-06T08:38:29.475Z,4.39
2017-12-06T08:40:56.969Z,4.38
2017-12-06T08:43:24.476Z,4.36
2017-12-06T08:45:51.981Z,4.74
2017-12-06T08:48:19.476Z,4.56
2017-12-06T08:50:46.965Z,4.39
2017-12-06T08:53:14.465Z,4.38
2017-12-06T08:55:41.962Z,4.09
2017-12-06T08:58:09.456Z,4.37
2017-12-06T09:00:36.938Z,4.38
2017-12-06T09:03:04.485Z,4.36
2017-12-06T09:05:31.988Z,4.49
2017-12-06T09:07:59.485Z,4.78
2017-12-06T09:10:27.009Z,4.45
2017-12-06T09:12:54.547Z,4.64
2017-12-06T09:15:22.043Z,4.97
2017-12-06T09:17:49.571Z,4.91
2017-12-06T09:20:17.055Z,4.63
2017-12-06T09:22:44.550Z,4.63
2017-12-06T09:25:12.040Z,4.45
2017-12-06T09:27:39.567Z,4.59
2017-12-06T09:30:07.057Z,4.97
2017-12-06T09:32:34.540Z,5.13
2017-12-06T09:35:02.084Z,4.87
2017-12-06T09:37:29.599Z,5.09
2017-12-06T09:39:57.085Z,4.82
2017-12-06T09:42:24.570Z,5.43
2017-12-06T09:44:52.049Z,5.36
2017-12-06T09:47:19.552Z,4.71
2017-12-06T09:49:47.037Z,4.84
2017-12-06T09:52:14.516Z,5.33
2017-12-06T09:54:42.009Z,5.55
2017-12-06T09:57:09.501Z,4.90
2017-12-06T09:59:36.989Z,5.46
2017-12-06T10:02:04.473Z,5.44
2017-12-06T10:04:31.976Z,5.19
2017-12-06T10:06:59.506Z,4.84
2017-12-06T10:09:27.014Z,5.31
2017-12-06T10:11:54.499Z,5.41
2017-12-06T10:14:21.978Z,5.35
2017-12-06T10:16:49.481Z,5.37
2017-12-06T10:19:17.050Z,5.61
2017-12-06T10:21:44.551Z,5.28
2017-12-06T10:24:12.156Z,5.34
2017-12-06T10:26:39.669Z,5.27
2017-12-06T10:29:07.170Z,5.26
2017-12-06T10:31:34.673Z,5.39
2017-12-06T10:34:02.180Z,5.54
2017-12-06T10:36:29.674Z,5.50
2017-12-06T10:38:57.160Z,5.77
2017-12-06T10:41:24.659Z,5.57
2017-12-06T10:43:52.161Z,5.60
2017-12-06T10:46:19.641Z,5.49
2017-12-06T10:48:47.132Z,5.29
2017-12-06T10:51:14.620Z,5.33
2017-12-06T10:53:42.152Z,5.57
2017-12-06T10:56:09.634Z,5.38
2017-12-06T10:58:37.112Z,5.54
2017-12-06T11:01:04.613Z,5.50
2017-12-06T11:03:32.105Z,5.65
2017-12-06T11:05:59.634Z,5.68
2017-12-06T11:08:27.172Z,5.68
2017-12-06T11:10:54.776Z,5.46
2017-12-06T11:13:22.252Z,5.21
2017-12-06T11:15:49.793Z,5.36
2017-12-06T11:18:17.286Z,5.61
2017-12-06T11:20:44.776Z,5.21
2017-12-06T11:23:12.269Z,5.07
2017-12-06T11:25:39.786Z,5.25
2017-12-06T11:28:07.274Z,5.26
2017-12-06T11:30:34.775Z,5.64
2017-12-06T11:33:02.275Z,5.76
2017-12-06T11:35:29.786Z,5.78
2017-12-06T11:37:57.323Z,5.79
2017-12-06T11:40:24.822Z,4.91
2017-12-06T11:42:52.312Z,5.39
2017-12-06T11:45:19.810Z,5.50
2017-12-06T11:47:47.297Z,5.85
2017-12-06T11:50:14.784Z,5.61
2017-12-06T11:52:42.281Z,5.66
2017-12-06T11:55:09.786Z,5.33
2017-12-06T11:57:37.272Z,5.36
2017-12-06T12:00:04.757Z,5.51
2017-12-06T12:02:32.261Z,5.27
2017-12-06T12:04:59.824Z,5.56
2017-12-06T12:07:27.389Z,5.75
2017-12-06T12:09:54.878Z,5.62
2017-12-06T12:12:22.393Z,5.54
2017-12-06T12:14:49.934Z,5.67
2017-12-06T12:17:17.444Z,5.92
2017-12-06T12:19:44.940Z,5.41
2017-12-06T12:22:12.428Z,5.73
2017-12-06T12:24:39.908Z,5.12
2017-12-06T12:27:07.407Z,5.02
2017-12-06T12:29:34.903Z,5.48
2017-12-06T12:32:02.400Z,5.52
2017-12-06T12:34:29.900Z,5.69
2017-12-06T12:36:57.397Z,5.75
2017-12-06T12:39:24.893Z,5.55
2017-12-06T12:41:52.369Z,5.20
2017-12-06T12:44:19.860Z,5.23
2017-12-06T12:46:47.359Z,5.35
2017-12-06T12:49:14.881Z,5.47
2017-12-06T12:51:42.365Z,5.63
2017-12-06T12:54:09.891Z,5.17
2017-12-06T12:56:37.369Z,5.18
2017-12-06T12:59:04.857Z,5.43
2017-12-06T13:01:32.345Z,5.82
2017-12-06T13:04:00.009Z,5.65
2017-12-06T13:06:27.516Z,5.83
2017-12-06T13:08:55.013Z,5.20
2017-12-06T13:11:23.125Z,5.87
2017-12-06T13:13:50.625Z,6.08
2017-12-06T13:16:18.130Z,5.87
2017-12-06T13:18:45.615Z,6.07
2017-12-06T13:21:13.097Z,5.75
2017-12-06T13:23:40.597Z,5.91
2017-12-06T13:26:08.113Z,5.53
2017-12-06T13:28:35.723Z,5.70
2017-12-06T13:31:03.257Z,5.28
2017-12-06T13:33:30.736Z,5.32
2017-12-06T13:35:58.224Z,5.59
2017-12-06T13:38:25.709Z,5.67
2017-12-06T13:40:53.225Z,5.77
2017-12-06T13:43:20.701Z,5.53
2017-12-06T13:45:48.183Z,5.80
2017-12-06T13:48:15.682Z,5.97
2017-12-06T13:50:43.198Z,5.68
2017-12-06T13:53:10.709Z,5.64
2017-12-06T13:55:38.210Z,5.96
2017-12-06T13:58:05.704Z,5.81
2017-12-06T14:00:33.381Z,5.27
2017-12-06T14:03:00.917Z,5.21
2017-12-06T14:05:28.413Z,5.19
2017-12-06T14:07:55.989Z,5.92
2017-12-06T14:10:23.548Z,5.26
2017-12-06T14:12:51.037Z,5.36
2017-12-06T14:15:18.524Z,5.75
2017-12-06T14:17:46.027Z,5.24
2017-12-06T14:20:13.516Z,5.06
2017-12-06T14:22:41.033Z,5.46
2017-12-06T14:25:08.513Z,5.44
2017-12-06T14:27:36.002Z,5.41
2017-12-06T14:30:03.498Z,5.43
2017-12-06T14:32:30.980Z,5.24
2017-12-06T14:34:58.509Z,5.52
2017-12-06T14:37:26.000Z,5.24
2017-12-06T14:39:53.613Z,5.59
2017-12-06T14:42:21.157Z,5.97
2017-12-06T14:44:48.644Z,4.95
2017-12-06T14:47:16.151Z,5.27
2017-12-06T14:49:43.679Z,5.33
2017-12-06T14:52:11.204Z,5.20
2017-12-06T14:54:38.701Z,5.27
2017-12-06T14:57:06.222Z,5.04
2017-12-06T14:59:33.721Z,4.85
2017-12-06T15:02:01.210Z,4.83
2017-12-06T15:04:28.693Z,4.78
2017-12-06T15:06:56.193Z,4.95
2017-12-06T15:09:23.700Z,4.93
2017-12-06T15:11:52.290Z,5.12
2017-12-06T15:14:19.785Z,4.93
2017-12-06T15:16:47.277Z,4.73
2017-12-06T15:19:14.770Z,4.60
2017-12-06T15:21:42.360Z,4.74
2017-12-06T15:24:09.865Z,4.90
2017-12-06T15:26:37.358Z,4.44
2017-12-06T15:29:04.838Z,4.60
2017-12-06T15:31:32.371Z,4.65
2017-12-06T15:33:59.860Z,5.03
2017-12-06T15:36:27.378Z,4.78
2017-12-06T15:38:54.872Z,5.00
2017-12-06T15:41:22.401Z,4.74
2017-12-06T15:43:49.988Z,4.60
2017-12-06T15:46:17.492Z,4.41
2017-12-06T15:48:45.134Z,4.57
2017-12-06T15:51:12.636Z,4.45
2017-12-06T15:53:40.230Z,4.24
2017-12-06T15:56:07.719Z,4.41
2017-12-06T15:58:35.199Z,4.27
2017-12-06T16:01:02.688Z,4.16
2017-12-06T16:03:30.173Z,4.44
2017-12-06T16:05:57.685Z,4.63
2017-12-06T16:08:25.182Z,4.59
2017-12-06T16:10:52.660Z,4.46
2017-12-06T16:13:20.191Z,4.21
2017-12-06T16:15:47.897Z,4.11
2017-12-06T16:18:15.419Z,4.07
2017-12-06T16:20:42.936Z,3.99
2017-12-06T16:23:10.465Z,3.87
2017-12-06T16:25:38.000Z,4.00
2017-12-06T16:28:05.536Z,3.92
2017-12-06T16:30:33.038Z,4.10
2017-12-06T16:33:00.589Z,3.95
2017-12-06T16:35:39.970Z,3.81
2017-12-06T16:38:07.511Z,4.23
2017-12-06T16:40:35.018Z,4.46
2017-12-06T16:43:02.511Z,4.17
2017-12-06T16:45:31.339Z,4.20
2017-12-06T16:47:58.852Z,4.45
2017-12-06T16:50:26.359Z,3.98
2017-12-06T16:52:53.853Z,4.27
2017-12-06T16:55:21.352Z,4.33
2017-12-06T16:57:48.842Z,4.41
2017-12-06T17:00:16.335Z,4.61
2017-12-06T17:02:43.845Z,4.43
2017-12-06T17:05:11.342Z,4.67
2017-12-06T17:07:38.945Z,4.52
2017-12-06T17:10:06.462Z,4.85
2017-12-06T17:12:34.009Z,4.07
2017-12-06T17:15:01.546Z,4.20
2017-12-06T17:17:29.156Z,4.66
2017-12-06T17:19:56.697Z,4.09
2017-12-06T17:22:24.273Z,4.08
2017-12-06T17:24:51.758Z,4.23
2017-12-06T17:27:19.265Z,4.19
2017-12-06T17:29:58.825Z,4.18
2017-12-06T17:32:26.336Z,4.05
2017-12-06T17:34:53.829Z,4.27
2017-12-06T17:37:21.345Z,4.10
2017-12-06T17:39:48.838Z,4.25
2017-12-06T17:42:16.376Z,4.14
2017-12-06T17:44:43.870Z,3.89
2017-12-06T17:47:11.362Z,4.25
2017-12-06T17:49:38.846Z,4.49
2017-12-06T17:52:06.346Z,4.27
2017-12-06T17:54:33.885Z,4.35
2017-12-06T17:57:01.375Z,4.32
2017-12-06T17:59:28.895Z,4.65
2017-12-06T18:01:56.392Z,3.91
2017-12-06T18:04:23.909Z,4.42
2017-12-06T18:06:51.417Z,4.52
2017-12-06T18:09:18.933Z,4.24
2017-12-06T18:11:46.444Z,4.22
2017-12-06T18:14:14.046Z,4.45
2017-12-06T18:16:41.558Z,4.42
2017-12-06T18:19:09.089Z,3.88
2017-12-06T18:21:36.612Z,3.99
2017-12-06T18:24:04.133Z,4.10
2017-12-06T18:26:31.667Z,3.85
2017-12-06T18:28:59.174Z,3.86
2017-12-06T18:31:26.710Z,3.97
2017-12-06T18:33:54.212Z,3.79
2017-12-06T18:36:21.742Z,4.29
2017-12-06T18:38:49.251Z,3.62
2017-12-06T18:41:16.859Z,3.80
2017-12-06T18:43:44.346Z,4.12
2017-12-06T18:46:11.848Z,4.34
2017-12-06T18:48:39.365Z,4.30
2017-12-06T18:51:06.862Z,3.84
2017-12-06T18:53:34.370Z,4.02
2017-12-06T18:56:01.891Z,4.00
2017-12-06T18:58:29.390Z,3.64
2017-12-06T19:00:56.876Z,3.95
2017-12-06T19:03:24.390Z,3.57
2017-12-06T19:05:51.880Z,3.74
2017-12-06T19:08:19.382Z,3.38
2017-12-06T19:10:46.877Z,3.61
2017-12-06T19:13:14.387Z,4.04
2017-12-06T19:15:41.939Z,3.53
2017-12-06T19:18:09.451Z,3.48
2017-12-06T19:20:36.965Z,3.81
2017-12-06T19:23:04.483Z,3.76
2017-12-06T19:25:32.111Z,3.56
2017-12-06T19:27:59.627Z,3.73
2017-12-06T19:30:27.141Z,3.45
2017-12-06T19:32:54.655Z,3.34
2017-12-06T19:35:22.169Z,3.43
2017-12-06T19:37:49.694Z,3.41
2017-12-06T19:40:17.200Z,3.24
2017-12-06T19:42:44.701Z,2.96
2017-12-06T19:45:12.271Z,3.27
2017-12-06T19:47:39.794Z,3.13
2017-12-06T19:50:07.319Z,3.54
2017-12-06T19:52:34.811Z,3.29
2017-12-06T19:55:02.337Z,3.48
2017-12-06T19:57:29.866Z,3.03
2017-12-06T19:59:57.367Z,2.67
2017-12-06T20:02:24.928Z,2.55
2017-12-06T20:04:52.467Z,2.91
2017-12-06T20:07:19.960Z,2.78
2017-12-06T20:09:47.729Z,2.90
2017-12-06T20:12:15.309Z,2.66
2017-12-06T20:14:42.862Z,2.65
2017-12-06T20:17:10.425Z,3.27
2017-12-06T20:19:37.960Z,3.50
2017-12-06T20:22:05.457Z,3.00
2017-12-06T20:24:33.008Z,3.26
2017-12-06T20:27:00.527Z,2.98
2017-12-06T20:29:28.102Z,2.32
2017-12-06T20:31:55.819Z,2.74
2017-12-06T20:34:23.333Z,2.43
2017-12-06T20:36:51.020Z,2.42
2017-12-06T20:39:18.525Z,2.62
2017-12-06T20:41:46.050Z,2.68
2017-12-06T20:44:13.561Z,2.86
2017-12-06T20:46:41.249Z,2.41
2017-12-06T20:49:08.817Z,2.41
2017-12-06T20:51:37.083Z,2.67
2017-12-06T20:54:04.700Z,2.63
2017-12-06T20:56:32.240Z,3.05
2017-12-06T20:59:00.060Z,2.76
2017-12-06T21:01:27.611Z,3.01
2017-12-06T21:03:55.097Z,2.33
2017-12-06T21:06:22.842Z,2.45
2017-12-06T21:08:50.479Z,2.53
2017-12-06T21:11:17.997Z,2.51
2017-12-06T21:13:45.516Z,2.55
2017-12-06T21:16:13.024Z,2.39
2017-12-06T21:18:40.507Z,2.47
2017-12-06T21:21:08.003Z,2.56
2017-12-06T21:23:35.570Z,2.76
2017-12-06T21:26:03.086Z,2.48
2017-12-06T21:28:30.627Z,2.55
2017-12-06T21:31:00.137Z,2.38
2017-12-06T21:33:27.781Z,2.40
2017-12-06T21:35:55.294Z,2.46
2017-12-06T21:38:22.922Z,2.69
2017-12-06T21:40:50.434Z,2.73
2017-12-06T21:43:17.934Z,2.91
2017-12-06T21:45:45.460Z,2.78
2017-12-06T21:48:12.983Z,2.50
2017-12-06T21:50:40.520Z,2.50
2017-12-06T21:53:08.216Z,2.78
2017-12-06T21:55:35.743Z,2.85
2017-12-06T21:58:03.261Z,2.89
2017-12-06T22:00:30.861Z,2.92
2017-12-06T22:02:58.370Z,2.55
2017-12-06T22:05:26.013Z,2.38
2017-12-06T22:07:53.603Z,2.67
2017-12-06T22:10:21.143Z,2.42
2017-12-06T22:12:48.793Z,2.46
2017-12-06T22:15:16.391Z,2.42
2017-12-06T22:17:43.910Z,2.26
2017-12-06T22:20:11.412Z,2.65
2017-12-06T22:22:38.922Z,2.39
2017-12-06T22:25:06.434Z,2.64
2017-12-06T22:27:33.922Z,2.37
2017-12-06T22:30:01.410Z,2.20
2017-12-06T22:32:28.925Z,2.13
2017-12-06T22:34:56.425Z,2.12
2017-12-06T22:37:23.922Z,2.17
2017-12-06T22:39:51.410Z,2.40
2017-12-06T22:42:18.984Z,2.34
2017-12-06T22:44:58.490Z,2.20
2017-12-06T22:47:26.172Z,2.34
2017-12-06T22:49:53.838Z,2.29
2017-12-06T22:52:21.415Z,2.34
2017-12-06T22:54:48.933Z,2.15
2017-12-06T22:57:16.434Z,2.31
2017-12-06T22:59:43.918Z,2.49
2017-12-06T23:02:11.473Z,2.70
2017-12-06T23:04:39.011Z,2.29
2017-12-06T23:07:07.382Z,2.27
2017-12-06T23:09:34.899Z,2.08
2017-12-06T23:12:02.401Z,2.24
2017-12-06T23:14:29.897Z,2.76
2017-12-06T23:16:57.414Z,2.14
2017-12-06T23:19:24.905Z,2.11
2017-12-06T23:21:52.433Z,2.37
2017-12-06T23:24:19.928Z,2.18
2017-12-06T23:26:47.436Z,2.07
2017-12-06T23:29:15.057Z,2.35
2017-12-06T23:31:42.557Z,1.94
2017-12-06T23:34:10.068Z,2.58
2017-12-06T23:36:37.552Z,1.97
2017-12-06T23:39:05.084Z,2.23
2017-12-06T23:41:32.601Z,2.30
2017-12-06T23:44:00.243Z,2.08
2017-12-06T23:46:27.737Z,2.22
2017-12-06T23:48:55.227Z,2.73
2017-12-06T23:51:22.755Z,2.69
2017-12-06T23:53:50.258Z,2.68
2017-12-06T23:56:17.793Z,2.57
2017-12-06T23:58:45.299Z,2.26
